sensor_id;sensor_type;location;lat;lon;timestamp;P1;durP1;ratioP1;P2;durP2;ratioP2
13185;SDS011;6658;53.080;7.428;2023-02-11T00:01:31;11.77;;;6.63;;
13185;SDS011;6658;53.080;7.428;2023-02-11T00:03:58;11.83;;;6.30;;
13185;SDS011;6658;53.080;7.428;2023-02-11T00:06:26;16.53;;;7.20;;
13185;SDS011;6658;53.080;7.428;2023-02-11T00:08:53;12.47;;;7.20;;
13185;SDS011;6658;53.080;7.428;2023-02-11T00:11:19;10.80;;;6.50;;
13185;SDS011;6658;53.080;7.428;2023-02-11T00:13:46;10.63;;;6.57;;
13185;SDS011;6658;53.080;7.428;2023-02-11T00:16:16;10.33;;;7.10;;
13185;SDS011;6658;53.080;7.428;2023-02-11T00:18:43;12.03;;;6.67;;
13185;SDS011;6658;53.080;7.428;2023-02-11T00:21:13;10.63;;;6.73;;
13185;SDS011;6658;53.080;7.428;2023-02-11T00:23:45;11.07;;;6.00;;
13185;SDS011;6658;53.080;7.428;2023-02-11T00:26:14;10.53;;;5.90;;
13185;SDS011;6658;53.080;7.428;2023-02-11T00:28:51;10.03;;;6.40;;
13185;SDS011;6658;53.080;7.428;2023-02-11T00:31:18;11.83;;;6.30;;
13185;SDS011;6658;53.080;7.428;2023-02-11T00:33:45;14.57;;;6.17;;
13185;SDS011;6658;53.080;7.428;2023-02-11T00:36:14;11.37;;;5.93;;
13185;SDS011;6658;53.080;7.428;2023-02-11T00:38:43;9.03;;;5.80;;
13185;SDS011;6658;53.080;7.428;2023-02-11T00:41:10;12.43;;;6.13;;
13185;SDS011;6658;53.080;7.428;2023-02-11T00:43:37;13.00;;;6.57;;
13185;SDS011;6658;53.080;7.428;2023-02-11T00:46:03;12.47;;;5.70;;
13185;SDS011;6658;53.080;7.428;2023-02-11T00:48:29;10.97;;;6.23;;
13185;SDS011;6658;53.080;7.428;2023-02-11T00:50:55;8.27;;;4.87;;
13185;SDS011;6658;53.080;7.428;2023-02-11T00:53:21;12.63;;;5.40;;
13185;SDS011;6658;53.080;7.428;2023-02-11T00:55:47;13.80;;;5.43;;
13185;SDS011;6658;53.080;7.428;2023-02-11T00:58:12;11.80;;;5.90;;
13185;SDS011;6658;53.080;7.428;2023-02-11T01:00:38;12.83;;;6.30;;
13185;SDS011;6658;53.080;7.428;2023-02-11T01:03:04;12.27;;;6.20;;
13185;SDS011;6658;53.080;7.428;2023-02-11T01:05:30;7.37;;;5.17;;
13185;SDS011;6658;53.080;7.428;2023-02-11T01:07:56;11.07;;;5.67;;
13185;SDS011;6658;53.080;7.428;2023-02-11T01:10:22;11.37;;;4.97;;
13185;SDS011;6658;53.080;7.428;2023-02-11T01:12:47;8.40;;;5.00;;
13185;SDS011;6658;53.080;7.428;2023-02-11T01:15:14;12.43;;;5.53;;
13185;SDS011;6658;53.080;7.428;2023-02-11T01:17:41;12.47;;;4.93;;
13185;SDS011;6658;53.080;7.428;2023-02-11T01:20:07;8.80;;;5.60;;
13185;SDS011;6658;53.080;7.428;2023-02-11T01:22:38;12.17;;;5.33;;
13185;SDS011;6658;53.080;7.428;2023-02-11T01:25:04;11.37;;;5.97;;
13185;SDS011;6658;53.080;7.428;2023-02-11T01:27:31;11.10;;;5.53;;
13185;SDS011;6658;53.080;7.428;2023-02-11T01:29:56;10.07;;;5.57;;
13185;SDS011;6658;53.080;7.428;2023-02-11T01:32:22;10.70;;;5.67;;
13185;SDS011;6658;53.080;7.428;2023-02-11T01:34:48;10.90;;;6.53;;
13185;SDS011;6658;53.080;7.428;2023-02-11T01:37:14;11.00;;;5.97;;
13185;SDS011;6658;53.080;7.428;2023-02-11T01:39:39;11.37;;;5.10;;
13185;SDS011;6658;53.080;7.428;2023-02-11T01:42:05;9.27;;;5.03;;
13185;SDS011;6658;53.080;7.428;2023-02-11T01:44:36;16.13;;;6.13;;
13185;SDS011;6658;53.080;7.428;2023-02-11T01:47:03;13.80;;;6.23;;
13185;SDS011;6658;53.080;7.428;2023-02-11T01:49:31;13.63;;;5.73;;
13185;SDS011;6658;53.080;7.428;2023-02-11T01:54:47;11.17;;;5.23;;
13185;SDS011;6658;53.080;7.428;2023-02-11T01:57:36;9.83;;;5.50;;
13185;SDS011;6658;53.080;7.428;2023-02-11T02:03:16;13.97;;;6.03;;
13185;SDS011;6658;53.080;7.428;2023-02-11T02:05:53;11.70;;;5.17;;
13185;SDS011;6658;53.080;7.428;2023-02-11T02:08:44;9.00;;;4.87;;
13185;SDS011;6658;53.080;7.428;2023-02-11T02:11:15;11.43;;;5.53;;
13185;SDS011;6658;53.080;7.428;2023-02-11T02:13:41;13.80;;;6.20;;
13185;SDS011;6658;53.080;7.428;2023-02-11T02:16:09;9.13;;;5.17;;
13185;SDS011;6658;53.080;7.428;2023-02-11T02:24:13;13.67;;;6.37;;
13185;SDS011;6658;53.080;7.428;2023-02-11T02:40:18;11.57;;;6.13;;
13185;SDS011;6658;53.080;7.428;2023-02-11T02:42:49;10.83;;;5.73;;
13185;SDS011;6658;53.080;7.428;2023-02-11T02:45:16;9.63;;;5.57;;
13185;SDS011;6658;53.080;7.428;2023-02-11T02:47:42;13.33;;;6.30;;
13185;SDS011;6658;53.080;7.428;2023-02-11T02:50:08;15.53;;;6.27;;
13185;SDS011;6658;53.080;7.428;2023-02-11T02:55:28;14.13;;;6.63;;
13185;SDS011;6658;53.080;7.428;2023-02-11T03:04:01;8.40;;;6.17;;
13185;SDS011;6658;53.080;7.428;2023-02-11T03:06:54;16.27;;;6.67;;
13185;SDS011;6658;53.080;7.428;2023-02-11T03:09:58;12.07;;;6.80;;
13185;SDS011;6658;53.080;7.428;2023-02-11T03:12:30;17.90;;;7.83;;
13185;SDS011;6658;53.080;7.428;2023-02-11T03:14:57;9.57;;;6.47;;
13185;SDS011;6658;53.080;7.428;2023-02-11T03:17:26;9.50;;;6.20;;
13185;SDS011;6658;53.080;7.428;2023-02-11T03:19:54;10.33;;;6.23;;
13185;SDS011;6658;53.080;7.428;2023-02-11T03:22:24;12.47;;;7.30;;
13185;SDS011;6658;53.080;7.428;2023-02-11T03:24:54;10.73;;;6.87;;
13185;SDS011;6658;53.080;7.428;2023-02-11T03:27:24;10.67;;;6.57;;
13185;SDS011;6658;53.080;7.428;2023-02-11T03:30:25;12.67;;;7.43;;
13185;SDS011;6658;53.080;7.428;2023-02-11T03:33:00;7.83;;;6.73;;
13185;SDS011;6658;53.080;7.428;2023-02-11T03:35:32;12.63;;;6.77;;
13185;SDS011;6658;53.080;7.428;2023-02-11T03:38:04;12.40;;;7.53;;
13185;SDS011;6658;53.080;7.428;2023-02-11T03:40:37;12.10;;;7.10;;
13185;SDS011;6658;53.080;7.428;2023-02-11T03:45:44;9.30;;;7.60;;
13185;SDS011;6658;53.080;7.428;2023-02-11T03:48:19;10.10;;;7.47;;
13185;SDS011;6658;53.080;7.428;2023-02-11T03:50:52;11.77;;;7.77;;
13185;SDS011;6658;53.080;7.428;2023-02-11T03:53:19;12.00;;;7.17;;
13185;SDS011;6658;53.080;7.428;2023-02-11T03:55:46;13.23;;;8.33;;
13185;SDS011;6658;53.080;7.428;2023-02-11T03:58:14;10.70;;;7.90;;
13185;SDS011;6658;53.080;7.428;2023-02-11T04:00:40;9.50;;;7.83;;
13185;SDS011;6658;53.080;7.428;2023-02-11T04:03:08;12.50;;;7.87;;
13185;SDS011;6658;53.080;7.428;2023-02-11T04:05:35;11.43;;;8.63;;
13185;SDS011;6658;53.080;7.428;2023-02-11T04:08:01;11.93;;;8.53;;
13185;SDS011;6658;53.080;7.428;2023-02-11T04:10:27;12.73;;;8.17;;
13185;SDS011;6658;53.080;7.428;2023-02-11T04:12:53;11.23;;;8.17;;
13185;SDS011;6658;53.080;7.428;2023-02-11T04:15:19;11.10;;;7.53;;
13185;SDS011;6658;53.080;7.428;2023-02-11T04:17:44;12.83;;;8.70;;
13185;SDS011;6658;53.080;7.428;2023-02-11T04:20:10;12.30;;;8.80;;
13185;SDS011;6658;53.080;7.428;2023-02-11T04:22:36;9.63;;;7.47;;
13185;SDS011;6658;53.080;7.428;2023-02-11T04:25:05;11.37;;;7.53;;
13185;SDS011;6658;53.080;7.428;2023-02-11T04:27:31;12.93;;;8.47;;
13185;SDS011;6658;53.080;7.428;2023-02-11T04:29:57;14.10;;;8.60;;
13185;SDS011;6658;53.080;7.428;2023-02-11T04:32:23;14.90;;;8.97;;
13185;SDS011;6658;53.080;7.428;2023-02-11T04:34:48;10.17;;;7.97;;
13185;SDS011;6658;53.080;7.428;2023-02-11T04:37:14;13.53;;;9.23;;
13185;SDS011;6658;53.080;7.428;2023-02-11T04:39:40;13.60;;;9.37;;
13185;SDS011;6658;53.080;7.428;2023-02-11T04:42:05;13.67;;;9.53;;
13185;SDS011;6658;53.080;7.428;2023-02-11T04:44:31;14.20;;;9.83;;
13185;SDS011;6658;53.080;7.428;2023-02-11T04:46:57;13.00;;;9.73;;
13185;SDS011;6658;53.080;7.428;2023-02-11T04:49:23;14.73;;;9.67;;
13185;SDS011;6658;53.080;7.428;2023-02-11T04:51:49;14.20;;;10.17;;
13185;SDS011;6658;53.080;7.428;2023-02-11T04:54:15;14.57;;;10.63;;
13185;SDS011;6658;53.080;7.428;2023-02-11T04:56:41;14.70;;;10.60;;
13185;SDS011;6658;53.080;7.428;2023-02-11T04:59:07;13.67;;;10.20;;
13185;SDS011;6658;53.080;7.428;2023-02-11T05:01:33;15.73;;;11.10;;
13185;SDS011;6658;53.080;7.428;2023-02-11T05:03:59;13.97;;;9.93;;
13185;SDS011;6658;53.080;7.428;2023-02-11T05:06:24;15.17;;;10.43;;
13185;SDS011;6658;53.080;7.428;2023-02-11T05:08:50;16.77;;;11.27;;
13185;SDS011;6658;53.080;7.428;2023-02-11T05:11:17;13.53;;;10.90;;
13185;SDS011;6658;53.080;7.428;2023-02-11T05:13:44;12.93;;;10.67;;
13185;SDS011;6658;53.080;7.428;2023-02-11T05:16:11;16.53;;;11.87;;
13185;SDS011;6658;53.080;7.428;2023-02-11T05:18:37;15.07;;;10.73;;
13185;SDS011;6658;53.080;7.428;2023-02-11T05:21:04;16.00;;;10.80;;
13185;SDS011;6658;53.080;7.428;2023-02-11T05:23:31;16.10;;;10.70;;
13185;SDS011;6658;53.080;7.428;2023-02-11T05:25:58;15.40;;;10.63;;
13185;SDS011;6658;53.080;7.428;2023-02-11T05:28:24;13.17;;;10.70;;
13185;SDS011;6658;53.080;7.428;2023-02-11T05:30:49;18.37;;;12.07;;
13185;SDS011;6658;53.080;7.428;2023-02-11T05:33:16;16.50;;;11.97;;
13185;SDS011;6658;53.080;7.428;2023-02-11T05:35:42;16.60;;;12.23;;
13185;SDS011;6658;53.080;7.428;2023-02-11T05:38:08;16.50;;;11.17;;
13185;SDS011;6658;53.080;7.428;2023-02-11T05:40:33;13.20;;;11.17;;
13185;SDS011;6658;53.080;7.428;2023-02-11T05:42:59;20.43;;;11.87;;
13185;SDS011;6658;53.080;7.428;2023-02-11T05:45:25;16.37;;;11.70;;
13185;SDS011;6658;53.080;7.428;2023-02-11T05:47:51;15.13;;;10.83;;
13185;SDS011;6658;53.080;7.428;2023-02-11T05:50:16;15.57;;;12.40;;
13185;SDS011;6658;53.080;7.428;2023-02-11T05:52:42;16.70;;;11.43;;
13185;SDS011;6658;53.080;7.428;2023-02-11T05:55:08;14.70;;;11.60;;
13185;SDS011;6658;53.080;7.428;2023-02-11T05:57:34;15.83;;;11.17;;
13185;SDS011;6658;53.080;7.428;2023-02-11T05:59:59;15.93;;;11.17;;
13185;SDS011;6658;53.080;7.428;2023-02-11T06:02:25;14.63;;;11.10;;
13185;SDS011;6658;53.080;7.428;2023-02-11T06:04:51;14.47;;;10.97;;
13185;SDS011;6658;53.080;7.428;2023-02-11T06:07:16;14.70;;;11.20;;
13185;SDS011;6658;53.080;7.428;2023-02-11T06:09:43;13.67;;;10.03;;
13185;SDS011;6658;53.080;7.428;2023-02-11T06:12:09;15.07;;;10.87;;
13185;SDS011;6658;53.080;7.428;2023-02-11T06:14:35;13.93;;;10.60;;
13185;SDS011;6658;53.080;7.428;2023-02-11T06:17:01;14.30;;;10.27;;
13185;SDS011;6658;53.080;7.428;2023-02-11T06:19:27;15.00;;;10.37;;
13185;SDS011;6658;53.080;7.428;2023-02-11T06:21:52;14.03;;;10.50;;
13185;SDS011;6658;53.080;7.428;2023-02-11T06:24:19;16.37;;;10.57;;
13185;SDS011;6658;53.080;7.428;2023-02-11T06:26:45;14.57;;;11.07;;
13185;SDS011;6658;53.080;7.428;2023-02-11T06:29:11;19.37;;;12.17;;
13185;SDS011;6658;53.080;7.428;2023-02-11T06:31:37;13.97;;;10.50;;
13185;SDS011;6658;53.080;7.428;2023-02-11T06:34:03;13.70;;;10.33;;
13185;SDS011;6658;53.080;7.428;2023-02-11T06:36:29;12.90;;;9.77;;
13185;SDS011;6658;53.080;7.428;2023-02-11T06:38:55;15.00;;;9.53;;
13185;SDS011;6658;53.080;7.428;2023-02-11T06:41:20;13.80;;;10.63;;
13185;SDS011;6658;53.080;7.428;2023-02-11T06:43:47;14.20;;;9.57;;
13185;SDS011;6658;53.080;7.428;2023-02-11T06:46:13;13.83;;;10.67;;
13185;SDS011;6658;53.080;7.428;2023-02-11T06:48:38;14.03;;;9.83;;
13185;SDS011;6658;53.080;7.428;2023-02-11T06:51:05;14.43;;;10.37;;
13185;SDS011;6658;53.080;7.428;2023-02-11T06:53:34;12.30;;;9.10;;
13185;SDS011;6658;53.080;7.428;2023-02-11T06:56:04;13.20;;;10.07;;
13185;SDS011;6658;53.080;7.428;2023-02-11T06:58:32;18.80;;;11.07;;
13185;SDS011;6658;53.080;7.428;2023-02-11T07:00:58;12.83;;;9.93;;
13185;SDS011;6658;53.080;7.428;2023-02-11T07:03:24;13.03;;;9.97;;
13185;SDS011;6658;53.080;7.428;2023-02-11T07:05:50;13.07;;;9.90;;
13185;SDS011;6658;53.080;7.428;2023-02-11T07:08:16;11.07;;;9.90;;
13185;SDS011;6658;53.080;7.428;2023-02-11T07:10:42;13.90;;;10.37;;
13185;SDS011;6658;53.080;7.428;2023-02-11T07:13:07;13.37;;;11.60;;
13185;SDS011;6658;53.080;7.428;2023-02-11T07:15:33;14.90;;;11.13;;
13185;SDS011;6658;53.080;7.428;2023-02-11T07:18:00;13.07;;;9.97;;
13185;SDS011;6658;53.080;7.428;2023-02-11T07:20:26;12.87;;;9.50;;
13185;SDS011;6658;53.080;7.428;2023-02-11T07:22:51;14.40;;;10.00;;
13185;SDS011;6658;53.080;7.428;2023-02-11T07:25:17;11.57;;;10.00;;
13185;SDS011;6658;53.080;7.428;2023-02-11T07:27:43;13.27;;;10.40;;
13185;SDS011;6658;53.080;7.428;2023-02-11T07:30:08;13.67;;;10.60;;
13185;SDS011;6658;53.080;7.428;2023-02-11T07:32:35;12.53;;;9.90;;
13185;SDS011;6658;53.080;7.428;2023-02-11T07:35:00;14.47;;;9.33;;
13185;SDS011;6658;53.080;7.428;2023-02-11T07:37:27;14.13;;;9.63;;
13185;SDS011;6658;53.080;7.428;2023-02-11T07:39:53;13.37;;;9.77;;
13185;SDS011;6658;53.080;7.428;2023-02-11T07:42:19;14.57;;;9.67;;
13185;SDS011;6658;53.080;7.428;2023-02-11T07:44:45;17.23;;;10.23;;
13185;SDS011;6658;53.080;7.428;2023-02-11T07:47:10;12.93;;;9.53;;
13185;SDS011;6658;53.080;7.428;2023-02-11T07:49:36;13.73;;;9.47;;
13185;SDS011;6658;53.080;7.428;2023-02-11T07:52:02;11.63;;;9.20;;
13185;SDS011;6658;53.080;7.428;2023-02-11T07:54:28;12.20;;;10.23;;
13185;SDS011;6658;53.080;7.428;2023-02-11T07:56:54;13.20;;;10.13;;
13185;SDS011;6658;53.080;7.428;2023-02-11T07:59:19;12.67;;;9.93;;
13185;SDS011;6658;53.080;7.428;2023-02-11T08:01:45;11.87;;;9.87;;
13185;SDS011;6658;53.080;7.428;2023-02-11T08:04:11;15.67;;;10.60;;
13185;SDS011;6658;53.080;7.428;2023-02-11T08:06:39;12.13;;;8.77;;
13185;SDS011;6658;53.080;7.428;2023-02-11T08:09:07;12.13;;;9.90;;
13185;SDS011;6658;53.080;7.428;2023-02-11T08:11:35;13.00;;;9.63;;
13185;SDS011;6658;53.080;7.428;2023-02-11T08:14:01;13.87;;;9.60;;
13185;SDS011;6658;53.080;7.428;2023-02-11T08:16:28;14.53;;;9.57;;
13185;SDS011;6658;53.080;7.428;2023-02-11T08:18:56;13.70;;;9.60;;
13185;SDS011;6658;53.080;7.428;2023-02-11T08:21:23;11.33;;;9.53;;
13185;SDS011;6658;53.080;7.428;2023-02-11T08:23:49;14.17;;;9.73;;
13185;SDS011;6658;53.080;7.428;2023-02-11T08:26:20;11.73;;;9.30;;
13185;SDS011;6658;53.080;7.428;2023-02-11T08:28:48;14.13;;;9.17;;
13185;SDS011;6658;53.080;7.428;2023-02-11T08:31:17;13.37;;;9.93;;
13185;SDS011;6658;53.080;7.428;2023-02-11T08:33:47;11.80;;;9.43;;
13185;SDS011;6658;53.080;7.428;2023-02-11T08:36:14;14.03;;;10.30;;
13185;SDS011;6658;53.080;7.428;2023-02-11T08:38:44;11.60;;;9.33;;
13185;SDS011;6658;53.080;7.428;2023-02-11T08:41:11;11.70;;;9.07;;
13185;SDS011;6658;53.080;7.428;2023-02-11T08:43:39;10.87;;;8.10;;
13185;SDS011;6658;53.080;7.428;2023-02-11T08:46:08;12.60;;;9.47;;
13185;SDS011;6658;53.080;7.428;2023-02-11T08:48:38;11.67;;;9.40;;
13185;SDS011;6658;53.080;7.428;2023-02-11T08:51:08;10.97;;;8.60;;
13185;SDS011;6658;53.080;7.428;2023-02-11T08:53:36;10.27;;;8.20;;
13185;SDS011;6658;53.080;7.428;2023-02-11T08:56:02;13.37;;;8.77;;
13185;SDS011;6658;53.080;7.428;2023-02-11T08:58:28;10.93;;;8.67;;
13185;SDS011;6658;53.080;7.428;2023-02-11T09:00:54;9.47;;;7.87;;
13185;SDS011;6658;53.080;7.428;2023-02-11T09:03:20;12.10;;;8.40;;
13185;SDS011;6658;53.080;7.428;2023-02-11T09:05:46;9.83;;;7.90;;
13185;SDS011;6658;53.080;7.428;2023-02-11T09:08:14;12.67;;;8.10;;
13185;SDS011;6658;53.080;7.428;2023-02-11T09:10:41;11.23;;;7.93;;
13185;SDS011;6658;53.080;7.428;2023-02-11T09:13:07;10.80;;;8.10;;
13185;SDS011;6658;53.080;7.428;2023-02-11T09:15:33;9.00;;;7.40;;
13185;SDS011;6658;53.080;7.428;2023-02-11T09:17:59;12.93;;;8.27;;
13185;SDS011;6658;53.080;7.428;2023-02-11T09:20:25;9.37;;;7.97;;
13185;SDS011;6658;53.080;7.428;2023-02-11T09:22:52;9.73;;;7.60;;
13185;SDS011;6658;53.080;7.428;2023-02-11T09:25:18;11.60;;;8.30;;
13185;SDS011;6658;53.080;7.428;2023-02-11T09:27:44;13.33;;;8.50;;
13185;SDS011;6658;53.080;7.428;2023-02-11T09:30:10;11.60;;;9.00;;
13185;SDS011;6658;53.080;7.428;2023-02-11T09:32:36;15.57;;;8.73;;
13185;SDS011;6658;53.080;7.428;2023-02-11T09:35:02;11.03;;;8.63;;
13185;SDS011;6658;53.080;7.428;2023-02-11T09:37:28;11.67;;;8.67;;
13185;SDS011;6658;53.080;7.428;2023-02-11T09:39:54;12.23;;;8.80;;
13185;SDS011;6658;53.080;7.428;2023-02-11T09:42:27;10.40;;;9.00;;
13185;SDS011;6658;53.080;7.428;2023-02-11T09:45:12;10.53;;;8.87;;
13185;SDS011;6658;53.080;7.428;2023-02-11T09:47:50;9.77;;;8.07;;
13185;SDS011;6658;53.080;7.428;2023-02-11T09:50:28;14.80;;;8.97;;
13185;SDS011;6658;53.080;7.428;2023-02-11T09:53:38;9.83;;;8.30;;
13185;SDS011;6658;53.080;7.428;2023-02-11T09:56:09;10.73;;;8.23;;
13185;SDS011;6658;53.080;7.428;2023-02-11T09:58:38;10.90;;;8.03;;
13185;SDS011;6658;53.080;7.428;2023-02-11T10:09:47;8.67;;;7.63;;
13185;SDS011;6658;53.080;7.428;2023-02-11T10:23:32;8.10;;;6.97;;
13185;SDS011;6658;53.080;7.428;2023-02-11T10:26:00;9.73;;;7.40;;
13185;SDS011;6658;53.080;7.428;2023-02-11T10:28:28;8.27;;;7.20;;
13185;SDS011;6658;53.080;7.428;2023-02-11T10:31:07;9.47;;;6.70;;
13185;SDS011;6658;53.080;7.428;2023-02-11T10:33:45;10.33;;;6.77;;
13185;SDS011;6658;53.080;7.428;2023-02-11T10:36:25;12.53;;;7.17;;
13185;SDS011;6658;53.080;7.428;2023-02-11T10:38:53;16.03;;;7.40;;
13185;SDS011;6658;53.080;7.428;2023-02-11T10:41:20;10.47;;;6.97;;
13185;SDS011;6658;53.080;7.428;2023-02-11T10:43:50;9.37;;;7.00;;
13185;SDS011;6658;53.080;7.428;2023-02-11T10:46:17;12.00;;;6.77;;
13185;SDS011;6658;53.080;7.428;2023-02-11T10:48:47;8.20;;;7.30;;
13185;SDS011;6658;53.080;7.428;2023-02-11T10:51:22;8.47;;;6.40;;
13185;SDS011;6658;53.080;7.428;2023-02-11T10:56:29;8.40;;;7.27;;
13185;SDS011;6658;53.080;7.428;2023-02-11T11:01:55;9.70;;;6.67;;
13185;SDS011;6658;53.080;7.428;2023-02-11T11:07:12;8.87;;;6.03;;
13185;SDS011;6658;53.080;7.428;2023-02-11T11:12:32;7.93;;;6.17;;
13185;SDS011;6658;53.080;7.428;2023-02-11T11:15:20;8.30;;;6.63;;
13185;SDS011;6658;53.080;7.428;2023-02-11T11:17:48;9.70;;;7.47;;
13185;SDS011;6658;53.080;7.428;2023-02-11T11:20:34;7.57;;;6.40;;
13185;SDS011;6658;53.080;7.428;2023-02-11T11:23:09;9.40;;;7.07;;
13185;SDS011;6658;53.080;7.428;2023-02-11T11:25:42;9.00;;;6.27;;
13185;SDS011;6658;53.080;7.428;2023-02-11T11:28:18;11.03;;;6.33;;
13185;SDS011;6658;53.080;7.428;2023-02-11T11:30:49;11.47;;;6.20;;
13185;SDS011;6658;53.080;7.428;2023-02-11T11:33:35;7.80;;;6.40;;
13185;SDS011;6658;53.080;7.428;2023-02-11T11:36:07;9.03;;;6.50;;
13185;SDS011;6658;53.080;7.428;2023-02-11T11:38:43;8.77;;;6.90;;
13185;SDS011;6658;53.080;7.428;2023-02-11T11:41:24;9.73;;;6.60;;
13185;SDS011;6658;53.080;7.428;2023-02-11T11:43:54;9.50;;;6.30;;
13185;SDS011;6658;53.080;7.428;2023-02-11T11:46:22;12.60;;;6.33;;
13185;SDS011;6658;53.080;7.428;2023-02-11T11:48:50;7.30;;;5.87;;
13185;SDS011;6658;53.080;7.428;2023-02-11T11:51:21;8.50;;;6.57;;
13185;SDS011;6658;53.080;7.428;2023-02-11T11:54:31;11.27;;;6.03;;
13185;SDS011;6658;53.080;7.428;2023-02-11T11:57:02;10.50;;;6.23;;
13185;SDS011;6658;53.080;7.428;2023-02-11T11:59:27;12.27;;;6.40;;
13185;SDS011;6658;53.080;7.428;2023-02-11T12:05:06;8.93;;;5.80;;
13185;SDS011;6658;53.080;7.428;2023-02-11T12:18:40;10.57;;;5.33;;
13185;SDS011;6658;53.080;7.428;2023-02-11T12:21:35;8.53;;;5.30;;
13185;SDS011;6658;53.080;7.428;2023-02-11T12:27:02;9.53;;;5.60;;
13185;SDS011;6658;53.080;7.428;2023-02-11T12:43:10;10.07;;;5.07;;
13185;SDS011;6658;53.080;7.428;2023-02-11T12:56:15;9.87;;;4.80;;
13185;SDS011;6658;53.080;7.428;2023-02-11T12:58:45;6.57;;;4.57;;
13185;SDS011;6658;53.080;7.428;2023-02-11T13:01:18;8.23;;;4.50;;
13185;SDS011;6658;53.080;7.428;2023-02-11T13:06:35;7.87;;;3.60;;
13185;SDS011;6658;53.080;7.428;2023-02-11T13:09:10;6.40;;;3.97;;
13185;SDS011;6658;53.080;7.428;2023-02-11T13:11:43;7.97;;;3.97;;
13185;SDS011;6658;53.080;7.428;2023-02-11T13:16:50;7.50;;;4.50;;
13185;SDS011;6658;53.080;7.428;2023-02-11T13:22:04;8.17;;;3.80;;
13185;SDS011;6658;53.080;7.428;2023-02-11T13:24:36;9.07;;;3.50;;
13185;SDS011;6658;53.080;7.428;2023-02-11T13:27:30;8.27;;;3.50;;
13185;SDS011;6658;53.080;7.428;2023-02-11T13:37:55;10.83;;;4.13;;
13185;SDS011;6658;53.080;7.428;2023-02-11T13:40:24;6.10;;;2.97;;
13185;SDS011;6658;53.080;7.428;2023-02-11T13:42:53;9.47;;;2.80;;
13185;SDS011;6658;53.080;7.428;2023-02-11T13:45:28;7.57;;;3.03;;
13185;SDS011;6658;53.080;7.428;2023-02-11T13:48:16;6.43;;;3.13;;
13185;SDS011;6658;53.080;7.428;2023-02-11T13:50:46;9.03;;;2.67;;
13185;SDS011;6658;53.080;7.428;2023-02-11T13:53:14;6.30;;;2.90;;
13185;SDS011;6658;53.080;7.428;2023-02-11T13:55:45;10.67;;;2.80;;
13185;SDS011;6658;53.080;7.428;2023-02-11T14:00:52;9.80;;;2.63;;
13185;SDS011;6658;53.080;7.428;2023-02-11T14:12:18;7.07;;;2.90;;
13185;SDS011;6658;53.080;7.428;2023-02-11T14:17:34;8.23;;;2.57;;
13185;SDS011;6658;53.080;7.428;2023-02-11T14:20:01;6.83;;;2.73;;
13185;SDS011;6658;53.080;7.428;2023-02-11T14:22:46;6.70;;;2.77;;
13185;SDS011;6658;53.080;7.428;2023-02-11T14:25:24;8.83;;;3.47;;
13185;SDS011;6658;53.080;7.428;2023-02-11T14:38:52;5.57;;;1.97;;
13185;SDS011;6658;53.080;7.428;2023-02-11T14:41:30;10.37;;;2.60;;
13185;SDS011;6658;53.080;7.428;2023-02-11T14:44:03;10.10;;;2.87;;
13185;SDS011;6658;53.080;7.428;2023-02-11T14:46:37;5.77;;;2.80;;
13185;SDS011;6658;53.080;7.428;2023-02-11T14:49:11;7.40;;;2.80;;
13185;SDS011;6658;53.080;7.428;2023-02-11T14:52:05;6.77;;;2.43;;
13185;SDS011;6658;53.080;7.428;2023-02-11T14:54:41;8.90;;;2.80;;
13185;SDS011;6658;53.080;7.428;2023-02-11T14:57:11;7.53;;;3.37;;
13185;SDS011;6658;53.080;7.428;2023-02-11T14:59:39;8.33;;;3.40;;
13185;SDS011;6658;53.080;7.428;2023-02-11T15:02:21;10.53;;;3.20;;
13185;SDS011;6658;53.080;7.428;2023-02-11T15:04:50;9.50;;;2.90;;
13185;SDS011;6658;53.080;7.428;2023-02-11T15:07:16;7.70;;;3.17;;
13185;SDS011;6658;53.080;7.428;2023-02-11T15:09:46;11.50;;;2.90;;
13185;SDS011;6658;53.080;7.428;2023-02-11T15:12:17;5.33;;;2.53;;
13185;SDS011;6658;53.080;7.428;2023-02-11T15:14:48;10.70;;;3.07;;
13185;SDS011;6658;53.080;7.428;2023-02-11T15:17:18;5.70;;;2.20;;
13185;SDS011;6658;53.080;7.428;2023-02-11T15:19:47;7.80;;;2.77;;
13185;SDS011;6658;53.080;7.428;2023-02-11T15:22:31;10.30;;;2.73;;
13185;SDS011;6658;53.080;7.428;2023-02-11T15:25:06;4.80;;;2.47;;
13185;SDS011;6658;53.080;7.428;2023-02-11T15:32:46;8.73;;;2.43;;
13185;SDS011;6658;53.080;7.428;2023-02-11T15:35:22;5.03;;;2.27;;
13185;SDS011;6658;53.080;7.428;2023-02-11T15:37:48;6.17;;;2.17;;
13185;SDS011;6658;53.080;7.428;2023-02-11T15:40:15;7.63;;;2.33;;
13185;SDS011;6658;53.080;7.428;2023-02-11T15:45:44;5.87;;;2.50;;
13185;SDS011;6658;53.080;7.428;2023-02-11T15:48:21;4.40;;;1.97;;
13185;SDS011;6658;53.080;7.428;2023-02-11T15:51:01;9.83;;;2.87;;
13185;SDS011;6658;53.080;7.428;2023-02-11T15:53:37;7.50;;;2.60;;
13185;SDS011;6658;53.080;7.428;2023-02-11T15:56:09;7.90;;;2.50;;
13185;SDS011;6658;53.080;7.428;2023-02-11T15:58:39;5.90;;;2.30;;
13185;SDS011;6658;53.080;7.428;2023-02-11T16:01:06;9.90;;;2.60;;
13185;SDS011;6658;53.080;7.428;2023-02-11T16:03:33;8.87;;;2.53;;
13185;SDS011;6658;53.080;7.428;2023-02-11T16:06:22;8.80;;;2.43;;
13185;SDS011;6658;53.080;7.428;2023-02-11T16:09:01;7.07;;;2.83;;
13185;SDS011;6658;53.080;7.428;2023-02-11T16:11:34;7.23;;;2.97;;
13185;SDS011;6658;53.080;7.428;2023-02-11T16:16:54;9.80;;;4.97;;
13185;SDS011;6658;53.080;7.428;2023-02-11T16:19:26;9.07;;;2.73;;
13185;SDS011;6658;53.080;7.428;2023-02-11T16:21:53;9.03;;;3.17;;
13185;SDS011;6658;53.080;7.428;2023-02-11T16:24:29;8.63;;;3.00;;
13185;SDS011;6658;53.080;7.428;2023-02-11T16:27:00;7.20;;;3.20;;
13185;SDS011;6658;53.080;7.428;2023-02-11T16:29:28;10.13;;;3.30;;
13185;SDS011;6658;53.080;7.428;2023-02-11T16:32:13;4.80;;;2.87;;
13185;SDS011;6658;53.080;7.428;2023-02-11T16:34:40;6.40;;;2.33;;
13185;SDS011;6658;53.080;7.428;2023-02-11T16:37:05;9.37;;;3.33;;
13185;SDS011;6658;53.080;7.428;2023-02-11T16:39:32;10.27;;;3.43;;
13185;SDS011;6658;53.080;7.428;2023-02-11T16:41:58;10.20;;;3.57;;
13185;SDS011;6658;53.080;7.428;2023-02-11T16:44:24;10.63;;;4.13;;
13185;SDS011;6658;53.080;7.428;2023-02-11T16:46:50;10.10;;;2.80;;
13185;SDS011;6658;53.080;7.428;2023-02-11T16:49:20;8.00;;;3.00;;
13185;SDS011;6658;53.080;7.428;2023-02-11T16:51:49;6.03;;;2.90;;
13185;SDS011;6658;53.080;7.428;2023-02-11T16:54:16;8.47;;;2.80;;
13185;SDS011;6658;53.080;7.428;2023-02-11T16:56:43;6.43;;;2.63;;
13185;SDS011;6658;53.080;7.428;2023-02-11T16:59:09;8.97;;;3.53;;
13185;SDS011;6658;53.080;7.428;2023-02-11T17:01:36;8.53;;;3.03;;
13185;SDS011;6658;53.080;7.428;2023-02-11T17:04:03;16.23;;;3.50;;
13185;SDS011;6658;53.080;7.428;2023-02-11T17:06:30;8.57;;;3.33;;
13185;SDS011;6658;53.080;7.428;2023-02-11T17:08:58;7.20;;;3.03;;
13185;SDS011;6658;53.080;7.428;2023-02-11T17:11:24;9.60;;;3.00;;
13185;SDS011;6658;53.080;7.428;2023-02-11T17:13:49;10.03;;;2.60;;
13185;SDS011;6658;53.080;7.428;2023-02-11T17:16:19;11.63;;;3.17;;
13185;SDS011;6658;53.080;7.428;2023-02-11T17:18:48;9.33;;;2.93;;
13185;SDS011;6658;53.080;7.428;2023-02-11T17:21:13;11.20;;;3.40;;
13185;SDS011;6658;53.080;7.428;2023-02-11T17:23:39;7.33;;;2.73;;
13185;SDS011;6658;53.080;7.428;2023-02-11T17:26:05;7.00;;;3.07;;
13185;SDS011;6658;53.080;7.428;2023-02-11T17:28:32;10.40;;;2.87;;
13185;SDS011;6658;53.080;7.428;2023-02-11T17:30:58;8.23;;;2.70;;
13185;SDS011;6658;53.080;7.428;2023-02-11T17:33:25;8.30;;;2.93;;
13185;SDS011;6658;53.080;7.428;2023-02-11T17:35:50;7.93;;;3.03;;
13185;SDS011;6658;53.080;7.428;2023-02-11T17:38:16;8.87;;;3.83;;
13185;SDS011;6658;53.080;7.428;2023-02-11T17:40:42;10.53;;;2.50;;
13185;SDS011;6658;53.080;7.428;2023-02-11T17:43:08;8.50;;;3.70;;
13185;SDS011;6658;53.080;7.428;2023-02-11T17:45:33;10.20;;;3.00;;